Time;durP1;ratioP1;P1;durP2;ratioP2;P2;SDS_P1;SDS_P2;PMS_P1;PMS_P2;Temp;Humidity;BMP_temperature;BMP_pressure;BME280_temperature;BME280_humidity;BME280_pressure;Samples;Min_cycle;Max_cycle;Signal;HPM_P1;HPM_P2
2023/01/16 00:02:00;;;;;;;0.52;0.52;;;;;;;6.55;100.00;97160.03;7387289;19;20029;-82
2023/01/16 00:04:27;;;;;;;3.13;0.52;;;;;;;9.54;100.00;97161.69;7391840;19;20031;-83
2023/01/16 00:06:54;;;;;;;6.72;0.28;;;;;;;9.86;100.00;97153.22;7392410;19;20010;-83
2023/01/16 00:09:20;;;;;;;2.95;1.02;;;;;;;9.25;100.00;97148.09;7388077;19;20078;-83
2023/01/16 00:11:47;;;;;;;2.30;0.40;;;;;;;11.94;100.00;97139.56;7386282;19;20062;-83
2023/01/16 00:14:13;;;;;;;2.28;0.98;;;;;;;10.39;100.00;97132.38;7386522;19;20047;-83
2023/01/16 00:16:39;;;;;;;0.52;0.52;;;;;;;13.07;100.00;97133.53;7388700;19;20407;-83
2023/01/16 00:19:05;;;;;;;7.60;0.60;;;;;;;13.39;100.00;97130.91;7384271;19;20014;-83
2023/01/16 00:21:32;;;;;;;0.38;0.38;;;;;;;13.90;100.00;97125.06;7386453;19;20039;-83
2023/01/16 00:23:58;;;;;;;3.88;0.77;;;;;;;11.26;100.00;97121.66;7385086;19;20269;-83
2023/01/16 00:26:27;;;;;;;1.75;0.60;;;;;;;10.93;100.00;97105.78;7388910;19;20015;-83
2023/01/16 00:28:54;;;;;;;0.35;0.28;;;;;;;13.82;100.00;97098.41;7384231;19;20044;-83
2023/01/16 00:31:23;;;;;;;0.20;0.20;;;;;;;15.11;100.00;97087.97;7388740;19;20552;-83
2023/01/16 00:33:49;;;;;;;4.03;1.65;;;;;;;12.68;100.00;97092.16;7387379;19;20022;-83
2023/01/16 00:36:18;;;;;;;5.43;0.90;;;;;;;12.24;100.00;97093.53;7387041;19;20019;-83
2023/01/16 00:38:44;;;;;;;1.13;0.65;;;;;;;16.47;98.40;97084.41;7386765;19;20018;-84
2023/01/16 00:41:10;;;;;;;2.17;0.95;;;;;;;16.36;90.99;97079.31;7385003;19;20595;-82
2023/01/16 00:43:36;;;;;;;1.88;0.35;;;;;;;16.28;88.64;97081.50;7386235;19;20049;-82
2023/01/16 00:46:03;;;;;;;0.95;0.45;;;;;;;17.04;88.47;97075.53;7389985;19;20477;-82
2023/01/16 00:48:29;;;;;;;2.92;1.67;;;;;;;15.75;99.50;97070.16;7385850;19;20026;-82
2023/01/16 00:50:55;;;;;;;1.90;0.43;;;;;;;11.47;100.00;97074.97;7389017;19;20018;-82
2023/01/16 00:53:21;;;;;;;3.70;1.10;;;;;;;11.63;100.00;97070.22;7385115;19;20811;-82
2023/01/16 00:55:51;;;;;;;0.30;0.25;;;;;;;9.55;100.00;97073.53;7387319;19;20018;-84
2023/01/16 00:58:17;;;;;;;0.73;0.43;;;;;;;6.53;100.00;97076.09;7386890;19;20431;-82
2023/01/16 01:00:43;;;;;;;1.58;0.20;;;;;;;5.72;100.00;97080.38;7387136;19;20038;-82
2023/01/16 01:03:09;;;;;;;1.52;0.50;;;;;;;10.51;100.00;97066.84;7388107;19;20019;-83
2023/01/16 01:05:37;;;;;;;2.22;1.13;;;;;;;9.80;100.00;97071.97;7390296;19;20021;-82
2023/01/16 01:08:04;;;;;;;2.58;0.47;;;;;;;9.22;100.00;97068.63;7387145;19;20025;-83
2023/01/16 01:10:30;;;;;;;1.58;0.85;;;;;;;10.75;100.00;97062.22;7386313;19;20022;-82
2023/01/16 01:12:56;;;;;;;1.85;1.05;;;;;;;11.32;100.00;97063.75;7385104;19;20025;-82
2023/01/16 01:15:23;;;;;;;1.05;0.45;;;;;;;11.34;100.00;97058.38;7385854;19;20017;-82
2023/01/16 01:17:49;;;;;;;3.55;0.40;;;;;;;14.11;100.00;97052.00;7384769;19;20023;-82
2023/01/16 01:20:15;;;;;;;0.82;0.82;;;;;;;9.60;100.00;97059.50;7386280;19;20018;-83
2023/01/16 01:22:44;;;;;;;1.25;0.60;;;;;;;7.24;100.00;97058.03;7384009;19;20611;-82
2023/01/16 01:25:11;;;;;;;0.17;0.17;;;;;;;5.88;100.00;97049.22;7388159;19;20017;-82
2023/01/16 01:27:37;;;;;;;2.08;0.90;;;;;;;6.16;100.00;97046.25;7387561;19;20015;-82
2023/01/16 01:30:03;;;;;;;0.22;0.22;;;;;;;6.78;100.00;97044.44;7386848;19;20034;-82
2023/01/16 01:32:29;;;;;;;1.45;0.55;;;;;;;7.08;100.00;97039.56;7387824;19;20686;-82
2023/01/16 01:34:55;;;;;;;2.72;0.50;;;;;;;6.61;100.00;97032.78;7387226;19;20043;-82
2023/01/16 01:37:22;;;;;;;0.60;0.25;;;;;;;6.77;100.00;97037.41;7385995;19;20018;-82
2023/01/16 01:39:49;;;;;;;0.68;0.32;;;;;;;5.98;100.00;97030.28;7385592;19;20597;-82
2023/01/16 01:45:09;;;;;;;0.55;0.30;;;;;;;5.65;100.00;97024.97;7386171;19;20378;-83
2023/01/16 01:47:39;;;;;;;0.50;0.38;;;;;;;5.80;100.00;97025.38;7387054;19;20022;-82
2023/01/16 01:50:36;;;;;;;0.45;0.45;;;;;;;5.26;100.00;97022.44;7388839;19;20027;-84
2023/01/16 01:53:11;;;;;;;1.30;0.80;;;;;;;5.21;100.00;97020.44;7388065;19;20011;-83
2023/01/16 01:55:41;;;;;;;2.30;0.95;;;;;;;5.38;100.00;97023.84;7386853;19;20030;-83
2023/01/16 01:58:10;;;;;;;0.47;0.43;;;;;;;5.24;100.00;97008.38;7384748;19;20025;-83
2023/01/16 02:00:36;;;;;;;1.88;1.27;;;;;;;5.30;100.00;97001.59;7388075;19;20133;-83
2023/01/16 02:03:12;;;;;;;1.70;0.45;;;;;;;5.99;100.00;96998.66;7392930;19;20392;-83
2023/01/16 02:05:45;;;;;;;1.98;0.82;;;;;;;5.71;100.00;97001.59;7394949;19;20094;-83
2023/01/16 02:08:17;;;;;;;3.22;1.95;;;;;;;6.07;100.00;96994.81;7395144;19;20022;-83
2023/01/16 02:10:49;;;;;;;0.95;0.80;;;;;;;11.32;100.00;96996.88;7393489;19;20033;-82
2023/01/16 02:13:15;;;;;;;1.95;0.43;;;;;;;11.32;100.00;97003.22;7389918;19;20529;-83
2023/01/16 02:19:15;;;;;;;3.08;0.65;;;;;;;10.54;100.00;96992.66;7390710;19;20014;-84
2023/01/16 02:21:50;;;;;;;0.50;0.50;;;;;;;11.04;100.00;96985.78;7390421;19;20031;-82
2023/01/16 02:24:44;;;;;;;0.55;0.50;;;;;;;14.87;100.00;96980.19;7391123;19;20046;-82
2023/01/16 02:27:32;;;;;;;1.48;0.47;;;;;;;11.21;100.00;96981.22;7393439;19;20018;-83
2023/01/16 02:30:09;;;;;;;1.70;0.95;;;;;;;11.46;100.00;96973.16;7392834;19;20019;-82
2023/01/16 02:32:53;;;;;;;1.30;0.68;;;;;;;12.72;100.00;96970.41;7393169;19;20018;-83
2023/01/16 02:35:55;;;;;;;1.52;1.17;;;;;;;10.28;100.00;96978.91;7392426;19;20387;-82
2023/01/16 02:38:29;;;;;;;;;;;;;;;11.70;100.00;96975.50;7391774;19;20777;-82
2023/01/16 02:41:09;;;;;;;10.05;1.00;;;;;;;11.56;100.00;96971.34;7391833;19;19926;-83
2023/01/16 02:43:44;;;;;;;0.65;0.65;;;;;;;17.11;90.05;96961.41;7392191;19;20030;-82
2023/01/16 02:46:25;;;;;;;0.63;0.43;;;;;;;16.57;97.88;96961.59;7395979;19;20015;-83
2023/01/16 02:48:58;;;;;;;1.95;0.85;;;;;;;7.39;100.00;96975.28;7391740;19;20019;-82
2023/01/16 02:51:49;;;;;;;2.22;0.25;;;;;;;10.94;100.00;96965.28;7394294;19;20014;-83
2023/01/16 02:54:25;;;;;;;3.60;0.73;;;;;;;8.07;100.00;96965.47;7392163;19;20774;-83
2023/01/16 02:56:59;;;;;;;2.10;0.95;;;;;;;9.35;100.00;96958.28;7392662;19;20338;-84
2023/01/16 02:59:28;;;;;;;2.30;1.17;;;;;;;7.46;100.00;96960.84;7390016;19;20014;-82
2023/01/16 03:01:56;;;;;;;0.95;0.70;;;;;;;7.45;100.00;96962.13;7390375;19;20078;-82
2023/01/16 03:04:40;;;;;;;2.13;1.52;;;;;;;10.90;100.00;96950.97;7391267;19;20375;-83
2023/01/16 03:07:32;;;;;;;1.67;0.73;;;;;;;10.85;100.00;96957.44;7393461;19;20685;-83
2023/01/16 03:09:58;;;;;;;1.65;0.57;;;;;;;9.54;100.00;96949.78;7390998;19;20027;-83
2023/01/16 03:13:15;;;;;;;3.50;1.10;;;;;;;7.64;100.00;96957.31;7391146;19;20018;-83
2023/01/16 03:15:56;;;;;;;8.40;0.85;;;;;;;5.32;100.00;96957.69;7391696;19;20023;-83
2023/01/16 03:18:28;;;;;;;1.38;0.82;;;;;;;5.98;100.00;96952.97;7392034;19;20029;-83
2023/01/16 03:21:06;;;;;;;1.05;0.95;;;;;;;12.67;100.00;96939.88;7391603;19;20085;-83
2023/01/16 03:23:45;;;;;;;4.95;0.52;;;;;;;8.81;100.00;96944.25;7390702;19;20465;-83
2023/01/16 03:26:36;;;;;;;0.85;0.77;;;;;;;5.30;100.00;96945.66;7392767;19;20014;-82
2023/01/16 03:29:04;;;;;;;0.32;0.30;;;;;;;4.88;100.00;96949.63;7391760;19;20034;-82
2023/01/16 03:31:51;;;;;;;0.47;0.47;;;;;;;4.70;100.00;96949.44;7388107;19;20021;-82
2023/01/16 03:34:21;;;;;;;0.50;0.50;;;;;;;4.94;100.00;96952.34;7390980;19;20131;-82
2023/01/16 03:37:00;;;;;;;2.22;0.88;;;;;;;7.31;100.00;96937.66;7393039;19;20109;-83
2023/01/16 03:39:34;;;;;;;0.75;0.75;;;;;;;6.16;100.00;96943.25;7386355;19;20053;-83
2023/01/16 03:42:07;;;;;;;1.10;1.00;;;;;;;4.98;100.00;96948.06;7386017;19;20031;-83
2023/01/16 03:44:57;;;;;;;0.95;0.20;;;;;;;4.54;100.00;96949.00;7388216;19;20420;-83
2023/01/16 03:47:31;;;;;;;1.10;0.60;;;;;;;4.89;100.00;96945.63;7389137;19;20109;-82
2023/01/16 03:50:05;;;;;;;0.20;0.20;;;;;;;4.20;100.00;96942.03;7388206;19;20014;-82
2023/01/16 03:52:37;;;;;;;3.65;0.70;;;;;;;4.06;100.00;96943.06;7389237;19;20022;-82
2023/01/16 03:55:25;;;;;;;1.98;1.55;;;;;;;4.08;100.00;96940.56;7389632;19;20018;-83
2023/01/16 03:57:55;;;;;;;1.65;0.43;;;;;;;7.06;100.00;96936.97;7390894;19;20022;-83
2023/01/16 04:00:27;;;;;;;1.08;0.43;;;;;;;4.50;100.00;96931.94;7390778;19;20010;-84
2023/01/16 04:03:19;;;;;;;1.00;0.90;;;;;;;4.05;100.00;96933.31;7389331;19;20035;-83
2023/01/16 04:06:13;;;;;;;1.10;0.70;;;;;;;4.11;100.00;96936.81;7392780;19;20032;-83
2023/01/16 04:08:41;;;;;;;2.80;1.13;;;;;;;4.03;100.00;96938.56;7390547;19;20035;-83
2023/01/16 04:11:09;;;;;;;2.30;1.30;;;;;;;4.05;100.00;96930.53;7388431;19;20488;-83
2023/01/16 04:13:38;;;;;;;0.85;0.50;;;;;;;3.97;100.00;96940.56;7388226;19;20018;-82
2023/01/16 04:16:09;;;;;;;2.08;0.95;;;;;;;3.92;100.00;96933.06;7391574;19;20056;-82
2023/01/16 04:18:36;;;;;;;0.22;0.22;;;;;;;4.05;100.00;96933.31;7387318;19;20387;-82
2023/01/16 04:21:07;;;;;;;0.88;0.57;;;;;;;3.97;100.00;96935.06;7388745;19;20081;-82
2023/01/16 04:23:34;;;;;;;1.23;1.13;;;;;;;3.98;100.00;96942.09;7384295;19;20068;-83
2023/01/16 04:26:00;;;;;;;0.32;0.32;;;;;;;3.97;100.00;96939.81;7392286;19;20022;-83
2023/01/16 04:28:26;;;;;;;0.63;0.43;;;;;;;3.92;100.00;96938.56;7388109;19;20612;-83
2023/01/16 04:30:53;;;;;;;0.77;0.63;;;;;;;3.82;100.00;96937.34;7389218;19;20624;-82
2023/01/16 04:33:19;;;;;;;0.80;0.55;;;;;;;3.83;100.00;96936.81;7389161;19;20022;-83
2023/01/16 04:35:45;;;;;;;1.33;1.00;;;;;;;3.88;100.00;96938.06;7389176;19;20017;-85
2023/01/16 04:38:12;;;;;;;6.97;1.55;;;;;;;3.83;100.00;96942.31;7387286;19;20044;-83
2023/01/16 04:40:38;;;;;;;4.95;1.20;;;;;;;3.87;100.00;96939.34;7386971;19;20022;-83
2023/01/16 04:43:05;;;;;;;1.88;0.90;;;;;;;4.03;100.00;96943.34;7385895;19;20032;-83
2023/01/16 04:45:31;;;;;;;2.25;0.80;;;;;;;4.17;100.00;96936.81;7390932;19;20018;-83
2023/01/16 04:47:57;;;;;;;3.67;0.75;;;;;;;9.34;100.00;96915.13;7388975;19;20082;-83
2023/01/16 04:50:23;;;;;;;3.83;0.80;;;;;;;11.25;100.00;96919.59;7388208;19;20015;-83
2023/01/16 04:52:49;;;;;;;3.33;1.15;;;;;;;15.01;100.00;96911.28;7389119;19;20026;-83
2023/01/16 04:55:15;;;;;;;3.13;1.23;;;;;;;13.81;100.00;96917.88;7389992;19;20010;-83
2023/01/16 04:57:41;;;;;;;2.92;1.08;;;;;;;8.30;100.00;96921.50;7384853;19;20019;-83
2023/01/16 05:00:09;;;;;;;6.68;1.42;;;;;;;13.26;100.00;96906.78;7384891;19;20014;-82
2023/01/16 05:02:36;;;;;;;1.65;1.27;;;;;;;16.17;99.33;96902.31;7385673;19;20022;-83
2023/01/16 05:05:02;;;;;;;1.52;1.30;;;;;;;17.25;87.49;96901.34;7389079;19;20070;-83
2023/01/16 05:07:28;;;;;;;4.47;1.38;;;;;;;16.53;91.38;96907.91;7388229;19;20094;-83
2023/01/16 05:09:54;;;;;;;4.68;0.85;;;;;;;16.27;92.25;96905.88;7387256;19;20453;-83
2023/01/16 05:12:21;;;;;;;3.25;0.82;;;;;;;17.21;84.38;96903.88;7387876;19;20026;-83
2023/01/16 05:14:47;;;;;;;5.47;1.75;;;;;;;15.92;88.67;96910.91;7385682;19;20040;-82
2023/01/16 05:17:13;;;;;;;0.52;0.52;;;;;;;17.26;84.50;96899.28;7385417;19;20022;-83
2023/01/16 05:19:39;;;;;;;5.18;1.30;;;;;;;17.84;79.30;96900.72;7384827;19;20018;-82
2023/01/16 05:22:05;;;;;;;6.43;1.60;;;;;;;17.65;77.30;96908.44;7384049;19;20010;-83
2023/01/16 05:24:32;;;;;;;2.63;1.83;;;;;;;18.23;75.53;96903.38;7383936;19;20024;-83
2023/01/16 05:26:58;;;;;;;12.23;3.17;;;;;;;18.51;73.41;96902.53;7392085;19;20026;-82
2023/01/16 05:29:24;;;;;;;11.90;3.60;;;;;;;18.39;72.75;96901.66;7385357;19;20050;-83
2023/01/16 05:31:50;;;;;;;1.77;1.23;;;;;;;18.56;71.85;96899.38;7385636;19;20033;-82
2023/01/16 05:34:16;;;;;;;1.40;0.93;;;;;;;18.60;70.13;96904.56;7394566;19;20015;-82
2023/01/16 05:36:42;;;;;;;4.30;2.47;;;;;;;18.51;69.72;96911.75;7403575;19;20373;-82
2023/01/16 05:39:09;;;;;;;3.83;0.98;;;;;;;18.51;69.88;96908.19;7397121;19;20018;-82
2023/01/16 05:41:35;;;;;;;10.50;2.08;;;;;;;17.94;70.50;96909.84;7398059;19;20015;-83
2023/01/16 05:44:01;;;;;;;2.45;1.63;;;;;;;11.75;100.00;96921.63;7398630;19;20425;-83
2023/01/16 05:46:28;;;;;;;1.55;1.27;;;;;;;10.20;100.00;96914.88;7404515;19;20026;-83
2023/01/16 05:48:54;;;;;;;11.88;2.30;;;;;;;12.06;100.00;96923.13;7401914;19;20049;-83
2023/01/16 05:51:20;;;;;;;1.48;0.93;;;;;;;12.72;100.00;96911.03;7403528;19;20022;-85
2023/01/16 05:53:52;;;;;;;3.40;0.80;;;;;;;8.75;100.00;96921.44;7403658;19;20513;-84
2023/01/16 05:56:21;;;;;;;3.70;0.82;;;;;;;8.10;100.00;96905.47;7405860;19;20035;-83
2023/01/16 05:58:48;;;;;;;3.05;0.82;;;;;;;7.71;100.00;96914.41;7402010;19;20086;-86
2023/01/16 06:01:14;;;;;;;7.78;1.17;;;;;;;4.34;100.00;96905.22;7399552;19;20433;-85
2023/01/16 06:03:40;;;;;;;3.85;1.90;;;;;;;3.80;100.00;96899.31;7399396;19;20014;-86
2023/01/16 06:06:06;;;;;;;1.17;0.40;;;;;;;4.12;100.00;96901.75;7404220;19;20489;-84
2023/01/16 06:08:32;;;;;;;4.25;2.03;;;;;;;3.94;100.00;96911.31;7400819;19;20015;-86
2023/01/16 06:10:59;;;;;;;1.02;0.40;;;;;;;3.69;100.00;96904.81;7400614;19;20018;-87
2023/01/16 06:13:25;;;;;;;4.50;1.35;;;;;;;4.13;100.00;96893.00;7399988;19;20019;-85
2023/01/16 06:15:51;;;;;;;2.85;1.00;;;;;;;4.00;100.00;96906.53;7401204;19;20036;-85
2023/01/16 06:18:17;;;;;;;7.45;2.03;;;;;;;3.88;100.00;96905.03;7400017;19;20458;-84
2023/01/16 06:20:44;;;;;;;0.82;0.82;;;;;;;3.82;100.00;96896.03;7398395;19;20020;-84
2023/01/16 06:23:10;;;;;;;2.45;0.93;;;;;;;3.68;100.00;96897.06;7399717;19;20018;-86
2023/01/16 06:25:36;;;;;;;4.70;1.80;;;;;;;3.59;100.00;96900.81;7402661;19;20035;-86
2023/01/16 06:28:02;;;;;;;9.52;1.45;;;;;;;3.77;100.00;96899.53;7399777;19;20481;-83
2023/01/16 06:30:28;;;;;;;5.38;1.48;;;;;;;3.89;100.00;96901.06;7400652;19;20022;-83
2023/01/16 06:32:55;;;;;;;2.00;1.02;;;;;;;4.19;100.00;96884.72;7397436;19;20049;-83
2023/01/16 06:35:21;;;;;;;5.45;2.63;;;;;;;4.23;100.00;96885.97;7396315;19;20066;-83
2023/01/16 06:37:47;;;;;;;4.07;1.63;;;;;;;4.12;100.00;96885.97;7397815;19;20019;-83
2023/01/16 06:40:13;;;;;;;1.92;0.80;;;;;;;4.03;100.00;96880.03;7396929;19;20018;-83
2023/01/16 06:42:39;;;;;;;2.38;0.80;;;;;;;3.68;100.00;96895.06;7396594;19;20062;-83
2023/01/16 06:45:06;;;;;;;4.85;2.17;;;;;;;3.43;100.00;96892.56;7394930;19;20035;-82
2023/01/16 06:47:32;;;;;;;2.03;1.00;;;;;;;3.32;100.00;96898.03;7390003;19;20018;-83
2023/01/16 06:49:58;;;;;;;2.97;1.67;;;;;;;3.21;100.00;96901.53;7390691;19;20549;-83
2023/01/16 06:52:24;;;;;;;6.00;1.05;;;;;;;3.15;100.00;96902.78;7393330;19;20104;-83
2023/01/16 06:54:50;;;;;;;3.17;2.25;;;;;;;3.18;100.00;96905.28;7392814;19;20616;-82
2023/01/16 06:57:17;;;;;;;9.57;3.00;;;;;;;3.23;100.00;96901.06;7390000;19;20019;-82
2023/01/16 06:59:43;;;;;;;2.42;0.90;;;;;;;3.26;100.00;96911.81;7391895;19;20021;-82
2023/01/16 07:02:10;;;;;;;10.48;1.65;;;;;;;3.34;100.00;96912.03;7390300;19;20036;-82
2023/01/16 07:04:36;;;;;;;5.13;2.10;;;;;;;3.38;100.00;96912.56;7390372;19;20101;-83
2023/01/16 07:07:02;;;;;;;2.92;1.42;;;;;;;3.41;100.00;96911.56;7391699;19;20070;-83
2023/01/16 07:09:29;;;;;;;2.25;0.65;;;;;;;3.40;100.00;96916.31;7391514;19;20608;-83
2023/01/16 07:11:55;;;;;;;3.25;0.85;;;;;;;3.37;100.00;96919.31;7390277;19;20040;-83
2023/01/16 07:22:39;;;;;;;0.88;0.80;;;;;;;3.25;100.00;96926.06;7388322;19;20031;-82
2023/01/16 07:25:10;;;;;;;0.20;0.20;;;;;;;3.14;100.00;96932.25;7387627;19;20015;-82
2023/01/16 07:27:38;;;;;;;1.20;0.52;;;;;;;2.66;100.00;96937.13;7387459;19;20018;-83
2023/01/16 07:30:06;;;;;;;1.58;0.40;;;;;;;2.30;100.00;96944.94;7395729;19;20085;-83
2023/01/16 07:32:32;;;;;;;0.95;0.60;;;;;;;2.46;100.00;96940.03;7391469;19;20023;-83
2023/01/16 07:34:58;;;;;;;2.75;1.30;;;;;;;2.28;100.00;96946.66;7389370;19;20477;-84
2023/01/16 07:37:24;;;;;;;0.30;0.30;;;;;;;2.74;100.00;96944.41;7389601;19;20019;-83
2023/01/16 07:39:50;;;;;;;0.30;0.30;;;;;;;2.48;100.00;96935.53;7390604;19;20015;-83
2023/01/16 07:42:16;;;;;;;3.90;1.33;;;;;;;2.37;100.00;96946.47;7389924;19;20031;-83
2023/01/16 07:44:43;;;;;;;0.90;0.90;;;;;;;2.52;100.00;96949.78;7391482;19;20022;-84
2023/01/16 07:47:10;;;;;;;2.80;0.90;;;;;;;2.86;100.00;96947.91;7394088;19;20029;-81
2023/01/16 07:49:36;;;;;;;0.32;0.32;;;;;;;3.04;100.00;96956.50;7390487;19;20042;-81
2023/01/16 07:52:02;;;;;;;6.40;1.10;;;;;;;3.03;100.00;96959.75;7390129;19;20025;-81
2023/01/16 07:54:29;;;;;;;1.20;0.98;;;;;;;3.02;100.00;96956.25;7392229;19;20050;-81
2023/01/16 07:56:55;;;;;;;0.65;0.35;;;;;;;3.08;100.00;96956.25;7389121;19;20031;-82
2023/01/16 07:59:21;;;;;;;0.90;0.40;;;;;;;3.11;100.00;96960.00;7390581;19;20030;-81
2023/01/16 08:01:47;;;;;;;1.13;0.40;;;;;;;4.10;100.00;96951.06;7387804;19;20029;-81
2023/01/16 08:04:13;;;;;;;5.97;1.58;;;;;;;3.96;100.00;96952.84;7387388;19;20022;-81
2023/01/16 08:06:44;;;;;;;0.98;0.75;;;;;;;3.83;100.00;96952.59;7391154;19;20028;-81
2023/01/16 08:09:11;;;;;;;0.97;0.87;;;;;;;3.76;100.00;96967.63;7387671;19;20018;-82
2023/01/16 08:11:46;;;;;;;1.20;1.17;;;;;;;3.70;100.00;96960.63;7386821;19;20849;-82
2023/01/16 08:14:12;;;;;;;4.78;1.27;;;;;;;3.68;100.00;96966.59;7386809;19;20859;-82
2023/01/16 08:16:38;;;;;;;5.90;1.15;;;;;;;3.77;100.00;96960.09;7392070;19;20022;-82
2023/01/16 08:19:04;;;;;;;3.10;1.17;;;;;;;8.91;100.00;96951.63;7386845;19;20068;-81
2023/01/16 08:21:31;;;;;;;2.40;1.02;;;;;;;10.52;100.00;96951.47;7385209;19;20019;-80
2023/01/16 08:23:57;;;;;;;6.38;1.60;;;;;;;8.40;100.00;96961.41;7386917;19;20484;-81
2023/01/16 08:26:23;;;;;;;0.15;0.05;;;;;;;9.20;100.00;96968.47;7391288;19;20084;-82
2023/01/16 08:28:49;;;;;;;0.95;0.55;;;;;;;8.24;100.00;96973.50;7390917;19;20033;-82
2023/01/16 08:31:17;;;;;;;8.35;1.55;;;;;;;7.52;100.00;96978.13;7387536;19;20022;-82
2023/01/16 08:33:44;;;;;;;2.63;0.88;;;;;;;7.22;100.00;96980.31;7385750;19;20018;-81
2023/01/16 08:36:11;;;;;;;4.60;0.68;;;;;;;7.49;100.00;96983.97;7389784;19;20023;-81
2023/01/16 08:38:38;;;;;;;2.90;1.70;;;;;;;4.42;100.00;96991.59;7384678;19;20023;-82
2023/01/16 08:51:21;;;;;;;4.00;1.85;;;;;;;3.73;100.00;96987.13;7385674;19;20020;-82
2023/01/16 08:52:06;;;;;;;0.40;0.40;;;;;;;3.19;100.00;97008.50;7387979;19;20025;-81
2023/01/16 08:54:33;;;;;;;2.25;1.35;;;;;;;3.14;100.00;97014.00;7385877;19;20025;-81
2023/01/16 08:56:59;;;;;;;2.30;1.52;;;;;;;3.14;100.00;97014.00;7388111;19;20472;-81
2023/01/16 08:59:25;;;;;;;0.63;0.63;;;;;;;3.10;100.00;97014.22;7387655;19;20014;-83
2023/01/16 09:01:51;;;;;;;0.20;0.15;;;;;;;3.07;100.00;97009.72;7385890;19;20021;-83
2023/01/16 09:04:17;;;;;;;0.90;0.63;;;;;;;3.05;100.00;97015.72;7388668;19;20383;-83
2023/01/16 09:06:43;;;;;;;3.15;0.70;;;;;;;2.97;100.00;97017.44;7392648;19;20023;-83
2023/01/16 09:09:09;;;;;;;3.75;1.35;;;;;;;2.93;100.00;97019.66;7386768;19;20029;-81
2023/01/16 09:14:20;;;;;;;1.42;1.10;;;;;;;2.88;100.00;97025.88;7383554;19;20719;-82
2023/01/16 09:16:47;;;;;;;1.15;0.82;;;;;;;2.85;100.00;97032.38;7386731;19;20493;-81
2023/01/16 09:19:13;;;;;;;3.03;1.08;;;;;;;2.89;100.00;97032.91;7385346;19;20022;-80
2023/01/16 09:21:39;;;;;;;4.13;0.50;;;;;;;2.94;100.00;97034.94;7385348;19;20010;-82
2023/01/16 09:24:05;;;;;;;1.60;1.00;;;;;;;3.03;100.00;97047.72;7383478;19;20082;-81
2023/01/16 09:26:31;;;;;;;3.83;0.85;;;;;;;3.07;100.00;97037.94;7390189;19;20022;-81
2023/01/16 09:28:57;;;;;;;1.13;0.50;;;;;;;3.12;100.00;97038.50;7389457;19;20085;-81
2023/01/16 09:31:24;;;;;;;1.20;0.63;;;;;;;3.17;100.00;97037.75;7386943;19;20683;-81
2023/01/16 09:33:52;;;;;;;1.85;0.85;;;;;;;3.23;100.00;97038.53;7384096;19;20018;-81
2023/01/16 09:36:18;;;;;;;0.43;0.35;;;;;;;3.27;100.00;97050.06;7387651;19;20023;-82
2023/01/16 09:38:44;;;;;;;0.50;0.50;;;;;;;3.30;100.00;97043.53;7384048;19;20018;-83
2023/01/16 09:44:11;;;;;;;0.60;0.52;;;;;;;3.25;100.00;97052.53;7383048;19;20029;-82
2023/01/16 09:46:51;;;;;;;0.63;0.63;;;;;;;3.22;100.00;97050.78;7391431;19;20022;-82
2023/01/16 09:49:28;;;;;;;1.27;0.80;;;;;;;3.22;100.00;97059.03;7389495;19;20018;-81
2023/01/16 10:00:29;;;;;;;0.85;0.70;;;;;;;3.35;100.00;97057.34;7386868;19;20010;-82
2023/01/16 10:02:55;;;;;;;2.17;1.05;;;;;;;3.30;100.00;97057.28;7386815;19;20023;-82
2023/01/16 10:05:28;;;;;;;0.45;0.45;;;;;;;3.42;100.00;97058.84;7388729;19;20365;-82
2023/01/16 10:08:03;;;;;;;0.77;0.50;;;;;;;4.58;100.00;97056.97;7385685;19;20010;-82
2023/01/16 10:10:43;;;;;;;0.38;0.38;;;;;;;4.02;100.00;97054.72;7386978;19;20520;-84
2023/01/16 10:13:34;;;;;;;3.72;1.15;;;;;;;3.65;100.00;97057.66;7385910;19;20802;-84
2023/01/16 10:16:15;;;;;;;0.98;0.95;;;;;;;4.67;100.00;97055.19;7390161;19;20026;-85
2023/01/16 10:19:20;;;;;;;2.17;0.82;;;;;;;3.62;100.00;97064.16;7387328;19;20504;-84
2023/01/16 10:21:49;;;;;;;2.03;0.80;;;;;;;4.42;100.00;97049.44;7391071;19;20025;-84
2023/01/16 10:24:15;;;;;;;6.10;1.05;;;;;;;5.77;100.00;97049.25;7391949;19;20015;-84
2023/01/16 10:26:52;;;;;;;2.05;1.50;;;;;;;6.30;100.00;97045.13;7398288;19;20544;-84
2023/01/16 10:29:39;;;;;;;0.10;0.10;;;;;;;5.42;100.00;97051.94;7396031;19;20485;-83
2023/01/16 10:32:31;;;;;;;0.57;0.55;;;;;;;3.63;100.00;97066.41;7392011;19;20018;-83
2023/01/16 10:35:09;;;;;;;0.30;0.30;;;;;;;4.77;100.00;97061.91;7390298;19;20014;-81
2023/01/16 10:37:37;;;;;;;3.40;0.70;;;;;;;4.93;100.00;97058.38;7388653;19;20019;-82
2023/01/16 10:40:19;;;;;;;1.27;1.17;;;;;;;3.64;100.00;97076.16;7389830;19;20019;-83
2023/01/16 10:51:12;;;;;;;2.00;0.60;;;;;;;11.25;100.00;97064.44;7391167;19;20049;-82
2023/01/16 10:53:38;;;;;;;0.80;0.80;;;;;;;8.24;100.00;97062.97;7390943;19;20019;-82
2023/01/16 10:56:05;;;;;;;0.85;0.85;;;;;;;6.31;100.00;97063.19;7392150;19;20090;-84
2023/01/16 10:58:35;;;;;;;0.52;0.43;;;;;;;9.12;100.00;97060.72;7390827;19;20030;-88
2023/01/16 11:01:18;;;;;;;0.43;0.43;;;;;;;6.85;100.00;97071.53;7395593;19;20021;-87
2023/01/16 11:03:50;;;;;;;0.95;0.43;;;;;;;6.66;100.00;97065.16;7396832;19;20034;-87
2023/01/16 11:06:25;;;;;;;0.35;0.35;;;;;;;6.22;100.00;97060.75;7400133;19;20011;-85
2023/01/16 11:09:03;;;;;;;0.95;0.30;;;;;;;8.20;100.00;97064.53;7392793;19;20015;-86
2023/01/16 11:20:18;;;;;;;0.28;0.25;;;;;;;5.40;100.00;97087.56;7389316;19;20021;-86
2023/01/16 11:22:50;;;;;;;0.35;0.35;;;;;;;6.09;100.00;97085.47;7389102;19;20018;-86
2023/01/16 11:25:20;;;;;;;0.10;0.10;;;;;;;11.85;100.00;97081.50;7391679;19;20019;-86
2023/01/16 11:27:50;;;;;;;0.50;0.45;;;;;;;14.67;100.00;97078.59;7391225;19;20478;-86
2023/01/16 11:30:20;;;;;;;0.13;0.13;;;;;;;13.08;100.00;97072.81;7394633;19;20026;-87
2023/01/16 11:32:48;;;;;;;0.10;0.10;;;;;;;8.51;100.00;97079.72;7389452;19;20481;-86
2023/01/16 11:35:17;;;;;;;0.17;0.17;;;;;;;14.63;100.00;97067.03;7390527;19;20019;-87
2023/01/16 11:37:48;;;;;;;0.38;0.20;;;;;;;14.31;100.00;97073.41;7391366;19;20022;-86
2023/01/16 11:40:19;;;;;;;0.73;0.32;;;;;;;14.97;97.17;97073.50;7389988;19;20053;-86
2023/01/16 11:46:03;;;;;;;0.10;0.10;;;;;;;10.81;100.00;97087.88;7393943;19;20477;-87
2023/01/16 11:48:44;;;;;;;0.10;0.10;;;;;;;13.74;100.00;97086.47;7391012;19;20022;-87
2023/01/16 11:51:17;;;;;;;1.23;1.05;;;;;;;9.91;100.00;97094.75;7388532;19;20045;-86
2023/01/16 11:53:45;;;;;;;0.52;0.40;;;;;;;8.93;100.00;97098.91;7388166;19;20019;-87
2023/01/16 11:56:18;;;;;;;0.40;0.40;;;;;;;10.75;100.00;97101.19;7391956;19;20018;-87
2023/01/16 11:59:29;;;;;;;13.68;1.45;;;;;;;8.51;100.00;97108.19;7390104;19;20030;-86
2023/01/16 12:02:21;;;;;;;0.65;0.32;;;;;;;10.01;100.00;97097.81;7385514;19;20018;-86
2023/01/16 12:08:01;;;;;;;0.10;0.10;;;;;;;9.08;100.00;97107.47;7389606;19;20018;-86
2023/01/16 12:10:49;;;;;;;0.10;0.10;;;;;;;8.79;100.00;97102.94;7387522;19;20047;-86
2023/01/16 12:16:20;;;;;;;0.10;0.10;;;;;;;12.32;100.00;97111.06;7391142;19;20014;-86
2023/01/16 12:19:05;;;;;;;0.52;0.22;;;;;;;4.98;100.00;97118.31;7388287;19;20052;-86
2023/01/16 12:21:34;;;;;;;0.10;0.10;;;;;;;6.35;100.00;97107.88;7388955;19;20018;-87
2023/01/16 12:24:16;;;;;;;0.30;0.30;;;;;;;13.29;100.00;97104.84;7387601;19;20014;-86
2023/01/16 12:27:16;;;;;;;0.10;0.10;;;;;;;12.21;100.00;97116.97;7394549;19;20029;-87
2023/01/16 12:29:58;;;;;;;0.38;0.38;;;;;;;10.74;100.00;97108.03;7392275;19;20010;-86
2023/01/16 12:32:58;;;;;;;0.20;0.10;;;;;;;9.30;100.00;97120.22;7389198;19;20018;-86
2023/01/16 12:36:03;;;;;;;0.20;0.20;;;;;;;9.40;100.00;97112.22;7389739;19;20375;-88
2023/01/16 12:38:52;;;;;;;0.10;0.10;;;;;;;9.02;100.00;97106.84;7387589;19;20019;-91
2023/01/16 12:45:11;;;;;;;0.10;0.10;;;;;;;8.09;100.00;97095.19;7386329;19;20496;-86
2023/01/16 12:48:07;;;;;;;0.13;0.13;;;;;;;9.08;100.00;97088.06;7389869;19;20351;-83
2023/01/16 12:50:58;;;;;;;0.20;0.05;;;;;;;9.63;100.00;97085.47;7388658;19;20018;-84
2023/01/16 12:53:27;;;;;;;0.23;0.23;;;;;;;10.99;100.00;97092.47;7385663;19;20086;-84
2023/01/16 12:56:27;;;;;;;0.30;0.30;;;;;;;10.42;100.00;97092.34;7388788;19;20034;-87
2023/01/16 12:59:00;;;;;;;0.20;0.20;;;;;;;9.51;100.00;97095.31;7386313;19;20014;-83